sensor_id;sensor_type;location;lat;lon;timestamp;pressure;altitude;pressure_sealevel;temperature;humidity
71966;BME280;59836;52.132;5.442;2023-02-21T00:00:30;102095.97;;;8.28;95.93
71966;BME280;59836;52.132;5.442;2023-02-21T00:03:16;102087.25;;;8.26;95.77
71966;BME280;59836;52.132;5.442;2023-02-21T00:06:07;102085.81;;;8.23;95.91
71966;BME280;59836;52.132;5.442;2023-02-21T00:08:52;102090.16;;;8.24;95.71
71966;BME280;59836;52.132;5.442;2023-02-21T00:11:44;102086.41;;;8.25;96.37
71966;BME280;59836;52.132;5.442;2023-02-21T00:14:29;102085.59;;;8.25;95.93
71966;BME280;59836;52.132;5.442;2023-02-21T00:17:16;102080.19;;;8.25;96.08
71966;BME280;59836;52.132;5.442;2023-02-21T00:20:02;102083.09;;;8.23;96.53
71966;BME280;59836;52.132;5.442;2023-02-21T00:22:47;102085.81;;;8.23;96.30
71966;BME280;59836;52.132;5.442;2023-02-21T00:25:32;102093.72;;;8.25;96.22
71966;BME280;59836;52.132;5.442;2023-02-21T00:28:17;102093.91;;;8.23;96.30
71966;BME280;59836;52.132;5.442;2023-02-21T00:31:02;102090.16;;;8.24;96.84
71966;BME280;59836;52.132;5.442;2023-02-21T00:33:47;102092.66;;;8.26;96.13
71966;BME280;59836;52.132;5.442;2023-02-21T00:36:32;102093.47;;;8.26;96.18
71966;BME280;59836;52.132;5.442;2023-02-21T00:39:17;102095.13;;;8.27;96.52
71966;BME280;59836;52.132;5.442;2023-02-21T00:42:02;102098.06;;;8.26;96.49
71966;BME280;59836;52.132;5.442;2023-02-21T00:44:48;102088.06;;;8.26;96.46
71966;BME280;59836;52.132;5.442;2023-02-21T00:47:33;102089.13;;;8.25;96.25
71966;BME280;59836;52.132;5.442;2023-02-21T00:50:18;102091.81;;;8.25;96.41
71966;BME280;59836;52.132;5.442;2023-02-21T00:53:08;102081.00;;;8.25;96.52
71966;BME280;59836;52.132;5.442;2023-02-21T00:56:03;102091.81;;;8.25;96.28
71966;BME280;59836;52.132;5.442;2023-02-21T00:58:53;102080.41;;;8.23;96.62
71966;BME280;59836;52.132;5.442;2023-02-21T01:01:38;102083.09;;;8.23;96.72
71966;BME280;59836;52.132;5.442;2023-02-21T01:04:24;102073.94;;;8.24;96.76
71966;BME280;59836;52.132;5.442;2023-02-21T01:07:12;102070.44;;;8.24;96.34
71966;BME280;59836;52.132;5.442;2023-02-21T01:09:57;102059.84;;;8.22;96.29
71966;BME280;59836;52.132;5.442;2023-02-21T01:12:43;102059.84;;;8.22;96.68
71966;BME280;59836;52.132;5.442;2023-02-21T01:15:33;102061.47;;;8.23;96.59
71966;BME280;59836;52.132;5.442;2023-02-21T01:18:20;102057.72;;;8.24;96.63
71966;BME280;59836;52.132;5.442;2023-02-21T01:21:11;102058.78;;;8.23;96.67
71966;BME280;59836;52.132;5.442;2023-02-21T01:23:57;102065.25;;;8.22;96.56
71966;BME280;59836;52.132;5.442;2023-02-21T01:26:46;102063.59;;;8.21;96.64
71966;BME280;59836;52.132;5.442;2023-02-21T01:29:31;102056.53;;;8.20;97.11
71966;BME280;59836;52.132;5.442;2023-02-21T01:32:16;102054.44;;;8.22;96.64
71966;BME280;59836;52.132;5.442;2023-02-21T01:35:01;102051.72;;;8.22;96.85
71966;BME280;59836;52.132;5.442;2023-02-21T01:37:51;102054.88;;;8.19;97.05
71966;BME280;59836;52.132;5.442;2023-02-21T01:40:38;102050.91;;;8.22;96.84
71966;BME280;59836;52.132;5.442;2023-02-21T01:43:25;102049.03;;;8.22;96.96
71966;BME280;59836;52.132;5.442;2023-02-21T01:46:25;102053.63;;;8.22;96.58
71966;BME280;59836;52.132;5.442;2023-02-21T01:49:15;102048.22;;;8.22;96.67
71966;BME280;59836;52.132;5.442;2023-02-21T01:52:04;102050.91;;;8.22;96.79
71966;BME280;59836;52.132;5.442;2023-02-21T01:54:52;102051.72;;;8.22;96.76
71966;BME280;59836;52.132;5.442;2023-02-21T01:57:44;102043.63;;;8.22;96.67
71966;BME280;59836;52.132;5.442;2023-02-21T02:00:35;102043.63;;;8.22;97.05
71966;BME280;59836;52.132;5.442;2023-02-21T02:03:46;102037.41;;;8.22;97.32
71966;BME280;59836;52.132;5.442;2023-02-21T02:06:32;102043.63;;;8.22;97.07
71966;BME280;59836;52.132;5.442;2023-02-21T02:09:19;102044.47;;;8.23;96.83
71966;BME280;59836;52.132;5.442;2023-02-21T02:15:18;102038.22;;;8.22;96.51
71966;BME280;59836;52.132;5.442;2023-02-21T02:18:07;102047.97;;;8.23;96.61
71966;BME280;59836;52.132;5.442;2023-02-21T02:35:08;102029.06;;;8.23;97.28
71966;BME280;59836;52.132;5.442;2023-02-21T02:37:53;102026.94;;;8.25;96.99
71966;BME280;59836;52.132;5.442;2023-02-21T02:40:38;102021.56;;;8.25;96.91
71966;BME280;59836;52.132;5.442;2023-02-21T02:43:31;102030.50;;;8.26;96.87
71966;BME280;59836;52.132;5.442;2023-02-21T02:48:45;102032.34;;;8.25;97.17
71966;BME280;59836;52.132;5.442;2023-02-21T02:51:15;102033.66;;;8.23;97.18
71966;BME280;59836;52.132;5.442;2023-02-21T02:53:42;102046.91;;;8.24;97.45
71966;BME280;59836;52.132;5.442;2023-02-21T02:56:17;102045.28;;;8.23;97.10
71966;BME280;59836;52.132;5.442;2023-02-21T02:58:59;102043.63;;;8.22;97.32
71966;BME280;59836;52.132;5.442;2023-02-21T03:04:57;102038.22;;;8.22;97.26
71966;BME280;59836;52.132;5.442;2023-02-21T03:13:33;102027.41;;;8.22;97.39
71966;BME280;59836;52.132;5.442;2023-02-21T03:21:37;102022.00;;;8.22;97.48
71966;BME280;59836;52.132;5.442;2023-02-21T03:24:07;102033.66;;;8.23;97.23
71966;BME280;59836;52.132;5.442;2023-02-21T03:26:40;102029.50;;;8.20;97.60
71966;BME280;59836;52.132;5.442;2023-02-21T03:29:09;102027.63;;;8.21;97.57
71966;BME280;59836;52.132;5.442;2023-02-21T03:31:42;102017.88;;;8.20;97.89
71966;BME280;59836;52.132;5.442;2023-02-21T03:34:09;102017.66;;;8.21;97.53
71966;BME280;59836;52.132;5.442;2023-02-21T03:36:38;102027.41;;;8.22;97.34
71966;BME280;59836;52.132;5.442;2023-02-21T03:39:24;102023.03;;;8.21;97.72
71966;BME280;59836;52.132;5.442;2023-02-21T03:41:50;102024.94;;;8.21;97.41
71966;BME280;59836;52.132;5.442;2023-02-21T03:44:23;102024.09;;;8.20;97.41
71966;BME280;59836;52.132;5.442;2023-02-21T03:47:03;102022.22;;;8.21;97.68
71966;BME280;59836;52.132;5.442;2023-02-21T03:49:35;102023.03;;;8.21;97.37
71966;BME280;59836;52.132;5.442;2023-02-21T03:52:02;102015.19;;;8.20;97.90
71966;BME280;59836;52.132;5.442;2023-02-21T03:54:29;102025.75;;;8.21;97.98
71966;BME280;59836;52.132;5.442;2023-02-21T03:56:56;102020.34;;;8.21;97.57
71966;BME280;59836;52.132;5.442;2023-02-21T03:59:24;102018.47;;;8.22;97.60
71966;BME280;59836;52.132;5.442;2023-02-21T04:01:51;102014.34;;;8.19;97.61
71966;BME280;59836;52.132;5.442;2023-02-21T04:04:30;102013.72;;;8.17;98.03
71966;BME280;59836;52.132;5.442;2023-02-21T04:06:57;102020.78;;;8.18;97.76
71966;BME280;59836;52.132;5.442;2023-02-21T04:09:33;102024.53;;;8.17;97.83
71966;BME280;59836;52.132;5.442;2023-02-21T04:11:59;102024.53;;;8.17;97.87
71966;BME280;59836;52.132;5.442;2023-02-21T04:14:27;102026.19;;;8.18;98.00
71966;BME280;59836;52.132;5.442;2023-02-21T04:17:02;102029.50;;;8.20;97.94
71966;BME280;59836;52.132;5.442;2023-02-21T04:19:28;102019.97;;;8.18;98.01
71966;BME280;59836;52.132;5.442;2023-02-21T04:22:04;102016.22;;;8.19;97.78
71966;BME280;59836;52.132;5.442;2023-02-21T04:24:34;102015.38;;;8.18;97.72
71966;BME280;59836;52.132;5.442;2023-02-21T04:27:00;102014.56;;;8.18;97.94
71966;BME280;59836;52.132;5.442;2023-02-21T04:29:28;102011.63;;;8.19;97.92
71966;BME280;59836;52.132;5.442;2023-02-21T04:31:54;102004.38;;;8.20;98.37
71966;BME280;59836;52.132;5.442;2023-02-21T04:34:21;102003.53;;;8.19;97.63
71966;BME280;59836;52.132;5.442;2023-02-21T04:39:46;102005.41;;;8.19;98.25
71966;BME280;59836;52.132;5.442;2023-02-21T04:42:26;102004.56;;;8.18;98.00
71966;BME280;59836;52.132;5.442;2023-02-21T04:45:04;102004.81;;;8.17;98.08
71966;BME280;59836;52.132;5.442;2023-02-21T04:47:31;102000.47;;;8.16;98.02
71966;BME280;59836;52.132;5.442;2023-02-21T04:50:08;101998.56;;;8.16;97.83
71966;BME280;59836;52.132;5.442;2023-02-21T04:52:35;102003.97;;;8.16;97.96
71966;BME280;59836;52.132;5.442;2023-02-21T04:55:16;102000.47;;;8.16;97.98
71966;BME280;59836;52.132;5.442;2023-02-21T04:57:42;101996.91;;;8.15;98.21
71966;BME280;59836;52.132;5.442;2023-02-21T05:00:11;102003.75;;;8.18;98.36
71966;BME280;59836;52.132;5.442;2023-02-21T05:02:42;102005.03;;;8.15;98.55
71966;BME280;59836;52.132;5.442;2023-02-21T05:05:08;102011.47;;;8.14;98.26
71966;BME280;59836;52.132;5.442;2023-02-21T05:07:46;102011.28;;;8.16;98.39
71966;BME280;59836;52.132;5.442;2023-02-21T05:10:16;102008.78;;;8.14;98.47
71966;BME280;59836;52.132;5.442;2023-02-21T05:12:46;102010.44;;;8.15;98.46
71966;BME280;59836;52.132;5.442;2023-02-21T05:15:13;102012.09;;;8.16;98.05
71966;BME280;59836;52.132;5.442;2023-02-21T05:17:47;102012.09;;;8.16;98.64
71966;BME280;59836;52.132;5.442;2023-02-21T05:20:14;102014.19;;;8.14;98.28
71966;BME280;59836;52.132;5.442;2023-02-21T05:22:41;102018.78;;;8.13;98.56
71966;BME280;59836;52.132;5.442;2023-02-21T05:25:17;102017.94;;;8.13;98.38
71966;BME280;59836;52.132;5.442;2023-02-21T05:27:44;102017.56;;;8.09;98.57
71966;BME280;59836;52.132;5.442;2023-02-21T05:30:13;102022.56;;;8.06;98.64
71966;BME280;59836;52.132;5.442;2023-02-21T05:32:40;102015.06;;;8.08;98.66
71966;BME280;59836;52.132;5.442;2023-02-21T05:35:08;102011.31;;;8.09;99.00
71966;BME280;59836;52.132;5.442;2023-02-21T05:37:36;102018.63;;;8.08;98.73
71966;BME280;59836;52.132;5.442;2023-02-21T05:40:26;102020.03;;;8.11;98.98
71966;BME280;59836;52.132;5.442;2023-02-21T05:42:54;102022.72;;;8.11;99.06
71966;BME280;59836;52.132;5.442;2023-02-21T05:45:28;102025.44;;;8.11;99.19
71966;BME280;59836;52.132;5.442;2023-02-21T05:47:56;102014.63;;;8.11;98.45
71966;BME280;59836;52.132;5.442;2023-02-21T05:50:33;102018.38;;;8.10;98.97
71966;BME280;59836;52.132;5.442;2023-02-21T05:53:00;102012.97;;;8.10;98.67
71966;BME280;59836;52.132;5.442;2023-02-21T05:55:34;102023.78;;;8.10;98.65
71966;BME280;59836;52.132;5.442;2023-02-21T05:58:04;102021.09;;;8.10;98.75
71966;BME280;59836;52.132;5.442;2023-02-21T06:00:30;102036.25;;;8.11;98.87
71966;BME280;59836;52.132;5.442;2023-02-21T06:02:57;102027.31;;;8.10;98.87
71966;BME280;59836;52.132;5.442;2023-02-21T06:05:23;102028.97;;;8.11;98.82
71966;BME280;59836;52.132;5.442;2023-02-21T06:08:00;102021.69;;;8.12;98.82
71966;BME280;59836;52.132;5.442;2023-02-21T06:10:30;102026.28;;;8.11;99.27
71966;BME280;59836;52.132;5.442;2023-02-21T06:13:14;102030.84;;;8.11;99.34
71966;BME280;59836;52.132;5.442;2023-02-21T06:15:51;102025.69;;;8.09;99.27
71966;BME280;59836;52.132;5.442;2023-02-21T06:18:33;102023.78;;;8.10;99.25
71966;BME280;59836;52.132;5.442;2023-02-21T06:21:00;102024.63;;;8.10;98.81
71966;BME280;59836;52.132;5.442;2023-02-21T06:23:33;102024.63;;;8.10;98.97
71966;BME280;59836;52.132;5.442;2023-02-21T06:26:00;102026.50;;;8.10;99.15
71966;BME280;59836;52.132;5.442;2023-02-21T06:28:28;102029.78;;;8.12;98.67
71966;BME280;59836;52.132;5.442;2023-02-21T06:30:55;102041.19;;;8.14;98.99
71966;BME280;59836;52.132;5.442;2023-02-21T06:33:22;102029.78;;;8.12;98.99
71966;BME280;59836;52.132;5.442;2023-02-21T06:35:50;102029.78;;;8.12;98.91
71966;BME280;59836;52.132;5.442;2023-02-21T06:38:16;102033.53;;;8.11;98.92
71966;BME280;59836;52.132;5.442;2023-02-21T06:40:45;102035.44;;;8.10;99.35
71966;BME280;59836;52.132;5.442;2023-02-21T06:43:11;102037.28;;;8.10;99.41
71966;BME280;59836;52.132;5.442;2023-02-21T06:45:46;102036.25;;;8.11;99.06
71966;BME280;59836;52.132;5.442;2023-02-21T06:48:14;102031.88;;;8.10;99.27
71966;BME280;59836;52.132;5.442;2023-02-21T06:50:54;102031.69;;;8.11;99.14
71966;BME280;59836;52.132;5.442;2023-02-21T06:53:20;102027.31;;;8.10;99.52
71966;BME280;59836;52.132;5.442;2023-02-21T06:55:47;102025.44;;;8.11;99.09
71966;BME280;59836;52.132;5.442;2023-02-21T06:58:17;102030.84;;;8.11;98.97
71966;BME280;59836;52.132;5.442;2023-02-21T07:00:44;102032.50;;;8.12;99.03
71966;BME280;59836;52.132;5.442;2023-02-21T07:06:16;102037.91;;;8.12;99.57
71966;BME280;59836;52.132;5.442;2023-02-21T07:08:56;102035.19;;;8.12;99.44
71966;BME280;59836;52.132;5.442;2023-02-21T07:11:23;102028.97;;;8.11;99.07
71966;BME280;59836;52.132;5.442;2023-02-21T07:13:54;102034.16;;;8.13;99.47
71966;BME280;59836;52.132;5.442;2023-02-21T07:16:22;102033.53;;;8.11;99.26
71966;BME280;59836;52.132;5.442;2023-02-21T07:18:48;102033.34;;;8.12;99.33
71966;BME280;59836;52.132;5.442;2023-02-21T07:21:16;102038.75;;;8.12;99.59
71966;BME280;59836;52.132;5.442;2023-02-21T07:23:49;102038.94;;;8.11;99.50
71966;BME280;59836;52.132;5.442;2023-02-21T07:26:22;102026.50;;;8.10;99.86
71966;BME280;59836;52.132;5.442;2023-02-21T07:28:53;102030.03;;;8.10;99.51
71966;BME280;59836;52.132;5.442;2023-02-21T07:31:20;102027.53;;;8.09;99.51
71966;BME280;59836;52.132;5.442;2023-02-21T07:33:47;102034.59;;;8.10;99.87
71966;BME280;59836;52.132;5.442;2023-02-21T07:36:13;102041.88;;;8.09;99.57
71966;BME280;59836;52.132;5.442;2023-02-21T07:38:41;102038.34;;;8.09;100.00
71966;BME280;59836;52.132;5.442;2023-02-21T07:41:08;102040.84;;;8.10;99.41
71966;BME280;59836;52.132;5.442;2023-02-21T07:43:56;102046.00;;;8.12;100.00
71966;BME280;59836;52.132;5.442;2023-02-21T07:46:26;102043.31;;;8.12;99.67
71966;BME280;59836;52.132;5.442;2023-02-21T07:48:56;102043.31;;;8.12;99.49
71966;BME280;59836;52.132;5.442;2023-02-21T07:51:35;102055.75;;;8.13;99.65
71966;BME280;59836;52.132;5.442;2023-02-21T07:54:10;102051.19;;;8.13;99.61
71966;BME280;59836;52.132;5.442;2023-02-21T07:56:53;102050.97;;;8.15;99.52
71966;BME280;59836;52.132;5.442;2023-02-21T07:59:33;102041.19;;;8.14;99.96
71966;BME280;59836;52.132;5.442;2023-02-21T08:02:00;102055.31;;;8.16;99.72
71966;BME280;59836;52.132;5.442;2023-02-21T08:04:27;102053.22;;;8.18;99.54
71966;BME280;59836;52.132;5.442;2023-02-21T08:06:59;102052.41;;;8.18;99.55
71966;BME280;59836;52.132;5.442;2023-02-21T08:09:26;102058.63;;;8.18;99.63
71966;BME280;59836;52.132;5.442;2023-02-21T08:11:52;102056.97;;;8.17;99.87
71966;BME280;59836;52.132;5.442;2023-02-21T08:14:19;102052.00;;;8.14;99.80
71966;BME280;59836;52.132;5.442;2023-02-21T08:16:45;102056.38;;;8.15;100.00
71966;BME280;59836;52.132;5.442;2023-02-21T08:19:11;102056.38;;;8.15;99.87
71966;BME280;59836;52.132;5.442;2023-02-21T08:21:38;102045.34;;;8.17;99.78
71966;BME280;59836;52.132;5.442;2023-02-21T08:24:11;102046.16;;;8.17;99.87
71966;BME280;59836;52.132;5.442;2023-02-21T08:26:37;102042.66;;;8.17;100.00
71966;BME280;59836;52.132;5.442;2023-02-21T08:29:07;102044.50;;;8.16;100.00
71966;BME280;59836;52.132;5.442;2023-02-21T08:31:37;102045.56;;;8.15;100.00
71966;BME280;59836;52.132;5.442;2023-02-21T08:34:04;102045.34;;;8.17;100.00
71966;BME280;59836;52.132;5.442;2023-02-21T08:36:33;102040.75;;;8.17;100.00
71966;BME280;59836;52.132;5.442;2023-02-21T08:38:59;102034.31;;;8.18;100.00
71966;BME280;59836;52.132;5.442;2023-02-21T08:41:40;102037.84;;;8.19;100.00
71966;BME280;59836;52.132;5.442;2023-02-21T08:44:09;102037.00;;;8.18;100.00
71966;BME280;59836;52.132;5.442;2023-02-21T08:46:36;102036.41;;;8.16;100.00
71966;BME280;59836;52.132;5.442;2023-02-21T08:49:04;102035.34;;;8.17;100.00
71966;BME280;59836;52.132;5.442;2023-02-21T08:51:32;102034.53;;;8.17;100.00
71966;BME280;59836;52.132;5.442;2023-02-21T08:53:58;102038.66;;;8.19;100.00
71966;BME280;59836;52.132;5.442;2023-02-21T08:56:25;102037.59;;;8.20;100.00
71966;BME280;59836;52.132;5.442;2023-02-21T08:58:52;102037.41;;;8.22;100.00
71966;BME280;59836;52.132;5.442;2023-02-21T09:01:21;102028.25;;;8.23;100.00
71966;BME280;59836;52.132;5.442;2023-02-21T09:03:48;102034.00;;;8.26;100.00
71966;BME280;59836;52.132;5.442;2023-02-21T09:06:15;102025.91;;;8.26;100.00
71966;BME280;59836;52.132;5.442;2023-02-21T09:08:41;102025.09;;;8.26;100.00
71966;BME280;59836;52.132;5.442;2023-02-21T09:11:08;102025.31;;;8.24;100.00
71966;BME280;59836;52.132;5.442;2023-02-21T09:13:34;102027.78;;;8.26;100.00
71966;BME280;59836;52.132;5.442;2023-02-21T09:16:02;102025.91;;;8.26;100.00
71966;BME280;59836;52.132;5.442;2023-02-21T09:18:30;102025.31;;;8.24;100.00
71966;BME280;59836;52.132;5.442;2023-02-21T09:20:57;102029.06;;;8.23;100.00
71966;BME280;59836;52.132;5.442;2023-02-21T09:23:26;102021.56;;;8.25;100.00
71966;BME280;59836;52.132;5.442;2023-02-21T09:25:54;102020.28;;;8.28;100.00
71966;BME280;59836;52.132;5.442;2023-02-21T09:28:21;102023.00;;;8.28;100.00
71966;BME280;59836;52.132;5.442;2023-02-21T09:30:48;102018.19;;;8.30;100.00
71966;BME280;59836;52.132;5.442;2023-02-21T09:33:16;102016.28;;;8.31;100.00
71966;BME280;59836;52.132;5.442;2023-02-21T09:35:43;102014.88;;;8.28;100.00
71966;BME280;59836;52.132;5.442;2023-02-21T09:38:09;102013.00;;;8.28;100.00
71966;BME280;59836;52.132;5.442;2023-02-21T09:40:43;102009.25;;;8.30;100.00
71966;BME280;59836;52.132;5.442;2023-02-21T09:43:23;102015.25;;;8.32;100.00
71966;BME280;59836;52.132;5.442;2023-02-21T09:45:55;102002.34;;;8.34;100.00
71966;BME280;59836;52.132;5.442;2023-02-21T09:48:24;102013.75;;;8.36;100.00
71966;BME280;59836;52.132;5.442;2023-02-21T09:50:57;102008.34;;;8.36;100.00
71966;BME280;59836;52.132;5.442;2023-02-21T09:53:30;102005.19;;;8.39;100.00
71966;BME280;59836;52.132;5.442;2023-02-21T09:56:05;102013.53;;;8.37;100.00
71966;BME280;59836;52.132;5.442;2023-02-21T09:58:33;102005.63;;;8.36;100.00
71966;BME280;59836;52.132;5.442;2023-02-21T10:01:05;102006.09;;;8.33;100.00
71966;BME280;59836;52.132;5.442;2023-02-21T10:03:46;101997.53;;;8.36;100.00
71966;BME280;59836;52.132;5.442;2023-02-21T10:06:38;102000.22;;;8.36;100.00
71966;BME280;59836;52.132;5.442;2023-02-21T10:09:24;101995.22;;;8.39;100.00
71966;BME280;59836;52.132;5.442;2023-02-21T10:12:17;101995.56;;;8.43;100.00
71966;BME280;59836;52.132;5.442;2023-02-21T10:15:13;101998.88;;;8.45;100.00
71966;BME280;59836;52.132;5.442;2023-02-21T10:20:29;101999.25;;;8.49;100.00
71966;BME280;59836;52.132;5.442;2023-02-21T10:22:59;102002.56;;;8.51;100.00
71966;BME280;59836;52.132;5.442;2023-02-21T10:25:30;101998.22;;;8.50;99.85
71966;BME280;59836;52.132;5.442;2023-02-21T10:27:59;102001.75;;;8.50;100.00
71966;BME280;59836;52.132;5.442;2023-02-21T10:30:31;102009.88;;;8.50;100.00
71966;BME280;59836;52.132;5.442;2023-02-21T10:33:00;102009.25;;;8.48;99.99
71966;BME280;59836;52.132;5.442;2023-02-21T10:35:36;102010.06;;;8.49;99.93
71966;BME280;59836;52.132;5.442;2023-02-21T10:38:10;102008.81;;;8.51;100.00
71966;BME280;59836;52.132;5.442;2023-02-21T10:40:56;102010.00;;;8.55;99.98
71966;BME280;59836;52.132;5.442;2023-02-21T10:43:40;102011.22;;;8.60;99.70
71966;BME280;59836;52.132;5.442;2023-02-21T10:48:42;102009.09;;;8.62;99.75
71966;BME280;59836;52.132;5.442;2023-02-21T10:51:17;102001.59;;;8.64;100.00
71966;BME280;59836;52.132;5.442;2023-02-21T10:53:53;102009.47;;;8.65;99.75
71966;BME280;59836;52.132;5.442;2023-02-21T10:56:40;102004.06;;;8.65;99.93
71966;BME280;59836;52.132;5.442;2023-02-21T10:59:07;102010.91;;;8.68;99.98
71966;BME280;59836;52.132;5.442;2023-02-21T11:04:04;102012.09;;;8.72;99.56
71966;BME280;59836;52.132;5.442;2023-02-21T11:06:36;102004.59;;;8.74;99.88
71966;BME280;59836;52.132;5.442;2023-02-21T11:09:40;102003.97;;;8.72;99.45
71966;BME280;59836;52.132;5.442;2023-02-21T11:12:25;102009.25;;;8.67;99.87
71966;BME280;59836;52.132;5.442;2023-02-21T11:17:20;102004.44;;;8.69;99.64
71966;BME280;59836;52.132;5.442;2023-02-21T11:20:01;102002.09;;;8.73;99.74
71966;BME280;59836;52.132;5.442;2023-02-21T11:30:40;102001.88;;;8.74;99.49
71966;BME280;59836;52.132;5.442;2023-02-21T11:33:11;101994.34;;;8.76;99.38
71966;BME280;59836;52.132;5.442;2023-02-21T11:35:46;101994.56;;;8.75;98.71
71966;BME280;59836;52.132;5.442;2023-02-21T11:38:34;101997.28;;;8.75;98.80
71966;BME280;59836;52.132;5.442;2023-02-21T11:41:14;101989.75;;;8.77;99.07
71966;BME280;59836;52.132;5.442;2023-02-21T11:43:52;101996.00;;;8.77;99.18
71966;BME280;59836;52.132;5.442;2023-02-21T11:46:33;101992.31;;;8.71;98.81
71966;BME280;59836;52.132;5.442;2023-02-21T11:49:23;101995.28;;;8.70;99.41
71966;BME280;59836;52.132;5.442;2023-02-21T11:52:24;101990.91;;;8.69;99.00
71966;BME280;59836;52.132;5.442;2023-02-21T11:54:52;101988.22;;;8.69;99.03
71966;BME280;59836;52.132;5.442;2023-02-21T11:57:33;101983.63;;;8.69;99.34
71966;BME280;59836;52.132;5.442;2023-02-21T12:03:31;101980.69;;;8.71;99.29
71966;BME280;59836;52.132;5.442;2023-02-21T12:06:08;101975.75;;;8.68;99.48
71966;BME280;59836;52.132;5.442;2023-02-21T12:08:38;101981.16;;;8.68;99.73
71966;BME280;59836;52.132;5.442;2023-02-21T12:11:26;101971.97;;;8.69;99.18
71966;BME280;59836;52.132;5.442;2023-02-21T12:36:04;101954.09;;;8.68;99.59
71966;BME280;59836;52.132;5.442;2023-02-21T12:38:58;101954.91;;;8.68;100.00
71966;BME280;59836;52.132;5.442;2023-02-21T12:44:23;101954.91;;;8.68;99.76
71966;BME280;59836;52.132;5.442;2023-02-21T12:47:06;101953.06;;;8.69;99.81
71966;BME280;59836;52.132;5.442;2023-02-21T12:52:51;101943.88;;;8.70;99.86
71966;BME280;59836;52.132;5.442;2023-02-21T12:55:30;101939.53;;;8.69;99.79
71966;BME280;59836;52.132;5.442;2023-02-21T12:58:10;101944.09;;;8.68;99.82
71966;BME280;59836;52.132;5.442;2023-02-21T13:00:43;101944.94;;;8.69;100.00
71966;BME280;59836;52.132;5.442;2023-02-21T13:03:35;101936.22;;;8.67;99.56
71966;BME280;59836;52.132;5.442;2023-02-21T13:06:27;101939.16;;;8.65;99.92
71966;BME280;59836;52.132;5.442;2023-02-21T13:09:16;101932.53;;;8.61;100.00
71966;BME280;59836;52.132;5.442;2023-02-21T13:11:58;101927.97;;;8.62;99.92
71966;BME280;59836;52.132;5.442;2023-02-21T13:14:37;101935.03;;;8.63;100.00
71966;BME280;59836;52.132;5.442;2023-02-21T13:17:09;101945.84;;;8.63;100.00
71966;BME280;59836;52.132;5.442;2023-02-21T13:19:53;101934.66;;;8.59;100.00
71966;BME280;59836;52.132;5.442;2023-02-21T13:22:23;101930.09;;;8.60;99.95
71966;BME280;59836;52.132;5.442;2023-02-21T13:25:26;101924.69;;;8.60;100.00
71966;BME280;59836;52.132;5.442;2023-02-21T13:28:01;101922.31;;;8.63;99.93
71966;BME280;59836;52.132;5.442;2023-02-21T13:32:59;101923.31;;;8.69;100.00
71966;BME280;59836;52.132;5.442;2023-02-21T13:35:31;101919.53;;;8.70;100.00
71966;BME280;59836;52.132;5.442;2023-02-21T13:38:00;101913.28;;;8.69;100.00
71966;BME280;59836;52.132;5.442;2023-02-21T13:40:34;101915.78;;;8.71;100.00
71966;BME280;59836;52.132;5.442;2023-02-21T13:43:05;101912.84;;;8.73;100.00
71966;BME280;59836;52.132;5.442;2023-02-21T13:45:32;101902.00;;;8.73;100.00
71966;BME280;59836;52.132;5.442;2023-02-21T13:55:35;101901.09;;;8.79;100.00
71966;BME280;59836;52.132;5.442;2023-02-21T14:08:35;101892.75;;;8.80;99.88
71966;BME280;59836;52.132;5.442;2023-02-21T14:13:44;101897.00;;;8.76;99.68
71966;BME280;59836;52.132;5.442;2023-02-21T14:18:44;101901.22;;;8.72;99.36
71966;BME280;59836;52.132;5.442;2023-02-21T14:21:28;101898.25;;;8.74;99.63
71966;BME280;59836;52.132;5.442;2023-02-21T14:23:59;101892.84;;;8.74;99.21
71966;BME280;59836;52.132;5.442;2023-02-21T14:26:42;101901.81;;;8.74;99.58
71966;BME280;59836;52.132;5.442;2023-02-21T14:31:56;101893.22;;;8.77;99.33
71966;BME280;59836;52.132;5.442;2023-02-21T14:34:38;101889.47;;;8.78;99.62
71966;BME280;59836;52.132;5.442;2023-02-21T14:37:31;101893.22;;;8.77;99.21
71966;BME280;59836;52.132;5.442;2023-02-21T14:45:43;101885.78;;;8.73;99.27
71966;BME280;59836;52.132;5.442;2023-02-21T14:54:20;101890.00;;;8.68;99.87
71966;BME280;59836;52.132;5.442;2023-02-21T15:02:55;101879.31;;;8.62;99.99
71966;BME280;59836;52.132;5.442;2023-02-21T15:05:30;101880.94;;;8.63;99.95
71966;BME280;59836;52.132;5.442;2023-02-21T15:10:43;101873.91;;;8.62;100.00
71966;BME280;59836;52.132;5.442;2023-02-21T15:13:31;101872.84;;;8.63;99.89
71966;BME280;59836;52.132;5.442;2023-02-21T15:16:06;101868.50;;;8.62;100.00
71966;BME280;59836;52.132;5.442;2023-02-21T15:18:36;101868.50;;;8.62;100.00
71966;BME280;59836;52.132;5.442;2023-02-21T15:21:07;101873.91;;;8.62;100.00
71966;BME280;59836;52.132;5.442;2023-02-21T15:23:45;101868.50;;;8.62;100.00
71966;BME280;59836;52.132;5.442;2023-02-21T15:29:14;101867.31;;;8.57;99.86
71966;BME280;59836;52.132;5.442;2023-02-21T15:31:49;101874.81;;;8.55;100.00
71966;BME280;59836;52.132;5.442;2023-02-21T15:34:19;101867.75;;;8.54;100.00
71966;BME280;59836;52.132;5.442;2023-02-21T15:36:49;101871.50;;;8.53;99.82
71966;BME280;59836;52.132;5.442;2023-02-21T15:39:30;101867.75;;;8.54;100.00
71966;BME280;59836;52.132;5.442;2023-02-21T15:41:58;101859.66;;;8.54;99.79
71966;BME280;59836;52.132;5.442;2023-02-21T15:44:33;101856.94;;;8.54;100.00
71966;BME280;59836;52.132;5.442;2023-02-21T15:49:35;101866.56;;;8.50;99.86
71966;BME280;59836;52.132;5.442;2023-02-21T15:52:03;101863.25;;;8.48;99.34
71966;BME280;59836;52.132;5.442;2023-02-21T15:54:32;101864.91;;;8.49;99.80
71966;BME280;59836;52.132;5.442;2023-02-21T15:59:36;101859.94;;;8.46;99.59
71966;BME280;59836;52.132;5.442;2023-02-21T16:02:12;101852.88;;;8.45;98.89
71966;BME280;59836;52.132;5.442;2023-02-21T16:04:44;101857.47;;;8.45;99.10
71966;BME280;59836;52.132;5.442;2023-02-21T16:07:31;101859.59;;;8.42;98.94